Time;durP1;ratioP1;P1;durP2;ratioP2;P2;SDS_P1;SDS_P2;PMS_P1;PMS_P2;Temp;Humidity;BMP_temperature;BMP_pressure;BME280_temperature;BME280_humidity;BME280_pressure;Samples;Min_cycle;Max_cycle;Signal;HPM_P1;HPM_P2
2023/05/13 00:00:10;;;;;;;;;;;;;;;27.13;42.41;93934.31;5025879;28;7280;-61
2023/05/13 00:02:53;;;;;;;;;;;;;;;27.15;42.27;93929.00;5030170;28;7426;-61
2023/05/13 00:05:39;;;;;;;;;;;;;;;27.13;42.37;93932.28;5032478;28;8279;-61
2023/05/13 00:08:16;;;;;;;;;;;;;;;27.14;42.54;93933.03;5030078;28;7080;-61
2023/05/13 00:11:25;;;;;;;;;;;;;;;27.13;42.63;93937.06;5029902;28;7030;-61
2023/05/13 00:14:16;;;;;;;;;;;;;;;27.13;42.46;93935.06;5006229;28;8944;-61
2023/05/13 00:16:46;;;;;;;;;;;;;;;27.12;42.25;93941.09;5002954;28;7289;-61
2023/05/13 00:19:20;;;;;;;;;;;;;;;27.11;42.51;93934.09;5028419;28;9160;-60
2023/05/13 00:22:21;;;;;;;;;;;;;;;27.10;42.56;93933.34;5032524;28;7275;-61
2023/05/13 00:24:50;;;;;;;;;;;;;;;27.09;42.72;93929.09;4979528;28;9392;-61
2023/05/13 00:27:32;;;;;;;;;;;;;;;27.11;42.58;93940.34;4993654;28;9161;-61
2023/05/13 00:30:33;;;;;;;;;;;;;;;27.11;42.36;93937.59;4968992;28;7287;-61
2023/05/13 00:33:00;;;;;;;;;;;;;;;27.08;42.71;93933.13;4939449;28;7288;-61
2023/05/13 00:35:27;;;;;;;;;;;;;;;27.10;42.67;93938.13;4954601;28;9158;-61
2023/05/13 00:37:55;;;;;;;;;;;;;;;27.09;42.53;93931.13;4953156;28;9329;-61
2023/05/13 00:40:38;;;;;;;;;;;;;;;27.09;42.46;93937.38;4954115;28;9130;-61
2023/05/13 00:43:16;;;;;;;;;;;;;;;27.07;42.51;93934.41;4952128;28;7238;-61
2023/05/13 00:45:50;;;;;;;;;;;;;;;27.06;42.70;93938.44;4948810;28;8554;-61
2023/05/13 00:48:16;;;;;;;;;;;;;;;27.06;42.44;93937.69;4948961;28;9785;-61
2023/05/13 00:51:01;;;;;;;;;;;;;;;27.05;42.68;93936.22;4944665;28;8277;-61
2023/05/13 00:53:37;;;;;;;;;;;;;;;27.04;42.67;93941.00;4952314;28;9077;-60
2023/05/13 00:56:18;;;;;;;;;;;;;;;27.07;42.85;93944.72;4946786;28;7470;-61
2023/05/13 00:58:50;;;;;;;;;;;;;;;27.07;43.03;93939.19;4983727;28;7036;-61
2023/05/13 01:01:53;;;;;;;;;;;;;;;27.06;42.60;93937.69;5011590;28;9083;-61
2023/05/13 01:05:02;;;;;;;;;;;;;;;27.06;42.39;93943.97;4993457;28;7054;-61
2023/05/13 01:08:06;;;;;;;;;;;;;;;27.07;42.63;93950.97;5025366;28;9656;-61
2023/05/13 01:10:42;;;;;;;;;;;;;;;27.06;42.46;93946.72;5049564;28;7116;-61
2023/05/13 01:13:15;;;;;;;;;;;;;;;27.05;42.64;93945.25;5050192;28;9430;-61
2023/05/13 01:15:59;;;;;;;;;;;;;;;27.01;42.49;93942.06;5043537;28;7298;-61
2023/05/13 01:18:35;;;;;;;;;;;;;;;27.03;42.71;93942.28;5033300;28;7106;-61
2023/05/13 01:21:24;;;;;;;;;;;;;;;27.05;42.84;93948.00;5046025;28;6981;-61
2023/05/13 01:23:53;;;;;;;;;;;;;;;27.06;42.23;93948.72;5028341;28;8684;-61
2023/05/13 01:26:25;;;;;;;;;;;;;;;27.06;42.52;93946.72;5028246;28;9502;-61
2023/05/13 01:29:00;;;;;;;;;;;;;;;27.05;41.94;93942.50;5034490;28;7021;-61
2023/05/13 01:31:50;;;;;;;;;;;;;;;27.06;42.51;93940.44;5035720;28;7344;-61
2023/05/13 01:34:27;;;;;;;;;;;;;;;27.05;42.41;93941.75;5045263;28;7335;-61
2023/05/13 01:37:04;;;;;;;;;;;;;;;27.05;42.62;93938.97;5024526;28;9115;-60
2023/05/13 01:39:49;;;;;;;;;;;;;;;27.07;42.08;93945.47;5042087;28;9443;-61
2023/05/13 01:42:17;;;;;;;;;;;;;;;27.04;42.46;93941.00;5010069;28;9043;-61
2023/05/13 01:44:50;;;;;;;;;;;;;;;27.04;42.45;93941.00;5043523;28;9455;-61
2023/05/13 01:47:31;;;;;;;;;;;;;;;27.06;42.23;93941.19;5048485;28;7042;-61
2023/05/13 01:50:07;;;;;;;;;;;;;;;27.05;42.55;93936.97;5043151;28;8316;-61
2023/05/13 01:52:45;;;;;;;;;;;;;;;27.03;42.55;93942.28;5031602;28;9039;-61
2023/05/13 01:55:38;;;;;;;;;;;;;;;27.03;41.85;93941.53;5044308;28;7445;-61
2023/05/13 01:58:07;;;;;;;;;;;;;;;26.98;42.90;93945.88;5031916;28;7283;-61
2023/05/13 02:00:33;;;;;;;;;;;;;;;27.01;42.56;93949.59;5022511;28;9324;-61
2023/05/13 02:02:59;;;;;;;;;;;;;;;27.00;42.93;93951.63;5040095;28;7139;-61
2023/05/13 02:05:27;;;;;;;;;;;;;;;27.01;42.54;93946.84;5043932;28;8990;-61
2023/05/13 02:07:53;;;;;;;;;;;;;;;27.00;42.68;93956.38;5027124;28;9344;-61
2023/05/13 02:10:19;;;;;;;;;;;;;;;27.00;42.38;93953.63;5032216;28;7433;-61
2023/05/13 02:12:45;;;;;;;;;;;;;;;26.98;42.42;93953.41;5045162;28;7273;-61
2023/05/13 02:15:19;;;;;;;;;;;;;;;26.99;42.47;93960.44;5037632;28;9678;-61
2023/05/13 02:17:55;;;;;;;;;;;;;;;26.99;42.61;93963.91;5044472;28;7231;-61
2023/05/13 02:20:30;;;;;;;;;;;;;;;27.00;43.22;93962.66;5043820;28;7043;-61
2023/05/13 02:22:58;;;;;;;;;;;;;;;26.98;42.56;93958.94;5042202;28;8712;-61
2023/05/13 02:25:24;;;;;;;;;;;;;;;26.95;42.53;93952.44;5039561;28;10841;-61
2023/05/13 02:27:51;;;;;;;;;;;;;;;26.96;42.76;93962.22;5043576;28;8766;-61
2023/05/13 02:30:17;;;;;;;;;;;;;;;26.97;42.70;93971.97;5028611;28;7237;-61
2023/05/13 02:32:50;;;;;;;;;;;;;;;26.96;42.45;93961.47;5023639;28;9384;-61
2023/05/13 02:35:29;;;;;;;;;;;;;;;26.96;42.62;93961.47;5042258;28;8866;-61
2023/05/13 02:38:09;;;;;;;;;;;;;;;26.94;42.44;93958.50;5034020;28;7263;-61
2023/05/13 02:40:48;;;;;;;;;;;;;;;26.95;42.39;93960.72;5043287;28;7056;-61
2023/05/13 02:43:23;;;;;;;;;;;;;;;26.94;42.66;93959.25;5043575;28;9280;-60
2023/05/13 02:46:10;;;;;;;;;;;;;;;26.92;42.96;93968.06;5051501;28;8603;-61
2023/05/13 02:48:41;;;;;;;;;;;;;;;26.92;42.94;93961.81;5024744;28;7026;-61
2023/05/13 02:51:15;;;;;;;;;;;;;;;26.90;42.61;93961.59;5037911;28;9071;-61
2023/05/13 02:53:47;;;;;;;;;;;;;;;26.88;42.62;93961.38;5038699;28;7034;-61
2023/05/13 02:56:19;;;;;;;;;;;;;;;26.89;42.78;93963.59;5026627;28;7675;-61
2023/05/13 02:58:47;;;;;;;;;;;;;;;26.90;42.61;93967.13;5032655;28;7539;-61
2023/05/13 03:01:21;;;;;;;;;;;;;;;26.89;42.58;93968.38;5042827;28;9352;-61
2023/05/13 03:04:25;;;;;;;;;;;;;;;26.89;42.66;93968.38;5030551;28;7044;-61
2023/05/13 03:06:51;;;;;;;;;;;;;;;26.88;42.77;93970.38;5044624;28;9523;-61
2023/05/13 03:09:51;;;;;;;;;;;;;;;26.88;42.98;93966.91;5040864;28;7145;-61
2023/05/13 03:12:28;;;;;;;;;;;;;;;26.83;42.96;93962.22;4990562;28;7144;-61
2023/05/13 03:15:08;;;;;;;;;;;;;;;26.82;42.78;93963.47;4961688;28;9148;-61
2023/05/13 03:17:46;;;;;;;;;;;;;;;26.78;42.69;93966.56;4970786;28;9131;-61
2023/05/13 03:20:26;;;;;;;;;;;;;;;26.79;42.69;93973.59;4972006;28;7291;-61
2023/05/13 03:23:11;;;;;;;;;;;;;;;26.79;42.65;93972.84;4988794;28;7273;-61
2023/05/13 03:25:54;;;;;;;;;;;;;;;26.77;42.78;93976.09;4964979;28;7947;-61
2023/05/13 03:28:39;;;;;;;;;;;;;;;26.79;42.92;93975.59;4971985;28;7449;-61
2023/05/13 03:31:05;;;;;;;;;;;;;;;26.77;43.14;93983.66;4963513;28;7289;-60
2023/05/13 03:33:32;;;;;;;;;;;;;;;26.77;42.64;93978.13;4971650;28;7026;-60
2023/05/13 03:36:21;;;;;;;;;;;;;;;26.78;42.59;93976.84;4974877;28;7224;-60
2023/05/13 03:39:11;;;;;;;;;;;;;;;26.77;42.71;93978.84;4964374;28;8370;-60
2023/05/13 03:41:58;;;;;;;;;;;;;;;26.77;42.88;93978.84;4972918;28;9030;-60
2023/05/13 03:44:25;;;;;;;;;;;;;;;26.75;43.00;93983.44;4989330;28;8960;-60
2023/05/13 03:46:57;;;;;;;;;;;;;;;26.74;42.71;93984.69;4977741;28;9022;-60
2023/05/13 03:49:33;;;;;;;;;;;;;;;26.73;42.85;93980.47;5029414;28;9446;-60
2023/05/13 03:51:59;;;;;;;;;;;;;;;26.77;43.21;93989.91;5038109;28;8633;-60
2023/05/13 03:54:44;;;;;;;;;;;;;;;26.78;42.72;93990.66;5043125;28;7470;-60
2023/05/13 03:57:16;;;;;;;;;;;;;;;26.75;42.74;93986.94;5030282;28;9019;-60
2023/05/13 03:59:44;;;;;;;;;;;;;;;26.74;42.64;93990.97;5030354;28;7048;-60
2023/05/13 04:02:10;;;;;;;;;;;;;;;26.74;42.66;93990.97;5042130;28;7252;-60
2023/05/13 04:04:36;;;;;;;;;;;;;;;26.76;42.75;93987.69;5023932;28;7260;-60
2023/05/13 04:07:02;;;;;;;;;;;;;;;26.76;43.06;93995.94;5024292;28;8731;-60
2023/05/13 04:09:28;;;;;;;;;;;;;;;26.75;42.82;93997.25;5031218;28;9597;-60
2023/05/13 04:11:55;;;;;;;;;;;;;;;26.77;43.12;93994.69;5044916;28;8737;-60
2023/05/13 04:14:56;;;;;;;;;;;;;;;26.76;42.64;93996.69;5045325;28;7040;-60
2023/05/13 04:17:52;;;;;;;;;;;;;;;26.74;42.47;93999.25;5044095;28;9580;-60
2023/05/13 04:20:19;;;;;;;;;;;;;;;26.74;42.74;94006.78;4984525;28;9208;-60
2023/05/13 04:23:05;;;;;;;;;;;;;;;26.73;42.84;94013.56;5005775;28;7082;-60
2023/05/13 04:25:35;;;;;;;;;;;;;;;26.70;42.84;94018.09;4993227;28;9079;-60
2023/05/13 04:28:11;;;;;;;;;;;;;;;26.71;43.09;94016.81;5003260;28;7129;-60
2023/05/13 04:30:46;;;;;;;;;;;;;;;26.74;42.89;94012.28;5009929;28;9178;-61
2023/05/13 04:33:22;;;;;;;;;;;;;;;26.71;42.84;94016.81;5007389;28;9070;-60
2023/05/13 04:36:33;;;;;;;;;;;;;;;26.71;43.08;94016.81;4992075;28;7280;-60
2023/05/13 04:39:00;;;;;;;;;;;;;;;26.69;42.93;94013.84;4957820;28;9743;-60
2023/05/13 04:42:17;;;;;;;;;;;;;;;26.71;42.66;94022.34;4942257;28;7490;-60
2023/05/13 04:44:59;;;;;;;;;;;;;;;26.71;42.78;94024.34;4916892;29;9192;-60
2023/05/13 04:47:27;;;;;;;;;;;;;;;26.69;42.95;94021.38;4915420;29;7498;-60
2023/05/13 04:50:30;;;;;;;;;;;;;;;26.69;42.64;94037.91;4914285;29;9254;-60
2023/05/13 04:53:14;;;;;;;;;;;;;;;26.68;42.93;94033.69;4922343;29;8770;-60
2023/05/13 04:55:56;;;;;;;;;;;;;;;26.65;42.88;94023.69;4926472;28;7629;-61
2023/05/13 04:58:44;;;;;;;;;;;;;;;26.68;43.43;94036.44;4945364;28;7023;-61
2023/05/13 05:01:37;;;;;;;;;;;;;;;26.65;43.27;94037.50;4953277;28;8967;-61
2023/05/13 05:04:23;;;;;;;;;;;;;;;26.68;43.20;94039.22;4937688;28;9549;-61
2023/05/13 05:06:50;;;;;;;;;;;;;;;26.64;43.27;94036.00;4933840;28;9029;-61
2023/05/13 05:09:20;;;;;;;;;;;;;;;26.65;43.38;94043.00;4934564;28;7082;-61
2023/05/13 05:15:55;;;;;;;;;;;;;;;26.64;42.63;94041.53;4966436;28;8693;-60
2023/05/13 05:18:29;;;;;;;;;;;;;;;26.64;43.18;94044.28;4985184;28;8624;-61
2023/05/13 05:21:09;;;;;;;;;;;;;;;26.64;43.26;94047.06;4969608;28;7352;-61
2023/05/13 05:23:36;;;;;;;;;;;;;;;26.63;42.96;94060.09;4976722;28;7330;-61
2023/05/13 05:26:03;;;;;;;;;;;;;;;26.58;43.65;94046.38;4985582;28;9037;-60
2023/05/13 05:28:45;;;;;;;;;;;;;;;26.59;43.09;94056.91;4993247;28;8996;-61
2023/05/13 05:31:55;;;;;;;;;;;;;;;26.59;43.45;94067.94;4982554;28;6860;-61
2023/05/13 05:34:23;;;;;;;;;;;;;;;26.56;43.75;94066.22;4980621;28;8728;-60
2023/05/13 05:36:59;;;;;;;;;;;;;;;26.60;43.58;94066.66;4973666;28;7040;-60
2023/05/13 05:40:11;;;;;;;;;;;;;;;26.62;43.22;94066.88;4977987;28;9094;-61
2023/05/13 05:42:46;;;;;;;;;;;;;;;26.58;43.15;94065.69;4972250;28;7294;-60
2023/05/13 05:45:13;;;;;;;;;;;;;;;26.61;43.15;94064.63;4967807;28;7377;-60
2023/05/13 05:48:10;;;;;;;;;;;;;;;26.62;43.31;94066.88;4988997;28;7276;-61
2023/05/13 05:50:37;;;;;;;;;;;;;;;26.62;43.21;94060.63;4952331;28;7261;-61
2023/05/13 05:53:16;;;;;;;;;;;;;;;26.63;43.13;94062.84;4936220;28;9622;-61
2023/05/13 05:56:14;;;;;;;;;;;;;;;26.62;43.14;94072.38;4935430;28;7264;-60
2023/05/13 05:58:55;;;;;;;;;;;;;;;26.62;42.96;94071.66;4870211;29;7448;-61
2023/05/13 06:01:53;;;;;;;;;;;;;;;26.62;42.96;94071.66;4890383;29;7197;-60
2023/05/13 06:04:28;;;;;;;;;;;;;;;26.60;42.74;94074.19;4898348;29;8193;-60
2023/05/13 06:07:26;;;;;;;;;;;;;;;26.52;42.96;94076.06;4880045;29;9144;-60
2023/05/13 06:09:57;;;;;;;;;;;;;;;26.51;43.47;94071.81;4852099;29;9054;-60
2023/05/13 06:12:56;;;;;;;;;;;;;;;26.51;43.19;94080.09;4850570;29;7394;-60
2023/05/13 06:15:28;;;;;;;;;;;;;;;26.52;43.26;94078.81;4780776;29;7822;-61
2023/05/13 06:18:13;;;;;;;;;;;;;;;26.54;42.89;94079.03;4787994;29;9064;-61
2023/05/13 06:20:56;;;;;;;;;;;;;;;26.56;43.60;94077.25;4803156;29;7380;-61
2023/05/13 06:23:41;;;;;;;;;;;;;;;26.60;43.47;94090.75;4795569;29;7264;-60
2023/05/13 06:26:26;;;;;;;;;;;;;;;26.62;43.38;94079.94;4805087;29;9066;-60
2023/05/13 06:29:18;;;;;;;;;;;;;;;26.66;43.08;94078.38;4820101;29;7233;-60
2023/05/13 06:31:56;;;;;;;;;;;;;;;26.63;43.05;94078.66;4828457;29;7026;-60
2023/05/13 06:34:35;;;;;;;;;;;;;;;26.67;43.13;94079.09;4849356;29;6985;-61
2023/05/13 06:37:01;;;;;;;;;;;;;;;26.67;42.89;94090.88;4893928;29;8600;-60
2023/05/13 06:39:27;;;;;;;;;;;;;;;26.69;42.46;94084.81;4877309;29;9055;-60
2023/05/13 06:42:04;;;;;;;;;;;;;;;26.70;42.99;94084.31;4890770;29;7064;-60
2023/05/13 06:44:40;;;;;;;;;;;;;;;26.72;42.93;94078.25;4902862;28;9135;-60
2023/05/13 06:47:07;;;;;;;;;;;;;;;26.75;42.87;94091.78;4951434;28;9384;-60
2023/05/13 06:49:33;;;;;;;;;;;;;;;26.75;42.80;94085.53;4954486;28;9280;-60
2023/05/13 06:52:25;;;;;;;;;;;;;;;26.79;42.67;94085.97;5027246;28;7278;-60
2023/05/13 06:55:01;;;;;;;;;;;;;;;26.77;42.87;94077.47;4973514;28;9678;-60
2023/05/13 06:57:27;;;;;;;;;;;;;;;26.76;43.13;94073.97;4970158;28;7259;-61
2023/05/13 07:00:13;;;;;;;;;;;;;;;26.77;42.50;94071.94;4973998;28;9012;-60
2023/05/13 07:02:40;;;;;;;;;;;;;;;26.79;42.63;94078.44;4983275;28;8214;-60
2023/05/13 07:05:07;;;;;;;;;;;;;;;26.80;42.75;94082.66;4964562;28;7109;-60
2023/05/13 07:07:33;;;;;;;;;;;;;;;26.84;42.69;94087.88;4959398;28;8931;-61
2023/05/13 07:10:00;;;;;;;;;;;;;;;26.88;42.69;94089.06;4979986;28;9061;-60
2023/05/13 07:12:33;;;;;;;;;;;;;;;26.96;42.94;94100.22;4976780;28;8503;-60
2023/05/13 07:15:08;;;;;;;;;;;;;;;27.03;42.78;94098.88;4975661;28;7213;-60
2023/05/13 07:17:44;;;;;;;;;;;;;;;27.08;42.02;94087.00;4965447;28;9375;-60
2023/05/13 07:20:21;;;;;;;;;;;;;;;27.15;42.38;94086.34;4980422;28;7029;-60
2023/05/13 07:22:51;;;;;;;;;;;;;;;27.21;42.26;94092.53;4974293;28;7088;-60
2023/05/13 07:25:25;;;;;;;;;;;;;;;27.23;42.05;94085.19;4985978;28;7376;-60
2023/05/13 07:28:23;;;;;;;;;;;;;;;27.31;41.93;94088.09;4986531;28;7040;-60
2023/05/13 07:31:20;;;;;;;;;;;;;;;27.35;42.02;94089.28;4950874;28;7040;-61
2023/05/13 07:33:48;;;;;;;;;;;;;;;27.36;41.76;94096.28;4935537;29;9132;-60
2023/05/13 07:36:30;;;;;;;;;;;;;;;27.41;41.90;94091.94;4952001;28;7099;-60
2023/05/13 07:38:57;;;;;;;;;;;;;;;27.39;41.70;94092.47;4952303;28;7117;-60
2023/05/13 07:41:37;;;;;;;;;;;;;;;27.47;41.79;94098.13;4938931;28;9360;-61
2023/05/13 07:44:10;;;;;;;;;;;;;;;27.47;41.39;94093.31;4943583;29;8740;-60
2023/05/13 07:46:37;;;;;;;;;;;;;;;27.51;41.71;94095.78;4943158;28;9527;-61
2023/05/13 07:49:20;;;;;;;;;;;;;;;27.52;41.59;94095.25;4943341;29;7375;-60
2023/05/13 07:52:20;;;;;;;;;;;;;;;27.53;41.60;94096.00;4936066;28;9031;-60
2023/05/13 07:55:04;;;;;;;;;;;;;;;27.52;41.33;94094.50;4902591;29;7188;-61
2023/05/13 07:57:41;;;;;;;;;;;;;;;27.51;41.54;94098.56;4915537;29;8696;-60
2023/05/13 08:00:08;;;;;;;;;;;;;;;27.51;41.42;94091.00;4912923;29;9481;-61
2023/05/13 08:02:53;;;;;;;;;;;;;;;27.53;41.51;94099.47;4916414;29;7441;-60
2023/05/13 08:05:24;;;;;;;;;;;;;;;27.55;41.60;94102.50;4916354;29;8755;-60
2023/05/13 08:07:58;;;;;;;;;;;;;;;27.56;41.35;94103.22;4927595;28;9368;-60
2023/05/13 08:10:35;;;;;;;;;;;;;;;27.55;41.43;94094.19;4966748;28;9009;-61
2023/05/13 08:13:27;;;;;;;;;;;;;;;27.53;41.62;94099.47;4953400;28;9031;-60
2023/05/13 08:16:07;;;;;;;;;;;;;;;27.51;41.44;94104.81;4969078;28;7681;-60
2023/05/13 08:18:38;;;;;;;;;;;;;;;27.52;41.93;94102.78;4964256;28;7271;-60
2023/05/13 08:21:35;;;;;;;;;;;;;;;27.51;41.13;94104.81;4966941;28;9123;-60
2023/05/13 08:24:36;;;;;;;;;;;;;;;27.50;41.76;94108.84;4930161;28;7214;-60
2023/05/13 08:27:04;;;;;;;;;;;;;;;27.47;41.77;94109.91;4900838;29;9067;-60
2023/05/13 08:29:57;;;;;;;;;;;;;;;27.48;41.71;94105.13;4905633;28;8733;-60
2023/05/13 08:32:41;;;;;;;;;;;;;;;27.47;41.93;94109.91;4938133;28;7292;-60
2023/05/13 08:35:36;;;;;;;;;;;;;;;27.47;41.78;94114.72;4939332;28;7122;-60
2023/05/13 08:38:13;;;;;;;;;;;;;;;27.42;41.82;94108.00;4962013;28;9141;-60
2023/05/13 08:40:44;;;;;;;;;;;;;;;27.44;41.59;94105.44;4972432;28;7598;-60
2023/05/13 08:43:42;;;;;;;;;;;;;;;27.41;41.82;94109.25;4968470;28;7290;-60
2023/05/13 08:46:10;;;;;;;;;;;;;;;27.42;41.90;94118.31;4931816;29;7280;-61
2023/05/13 08:49:06;;;;;;;;;;;;;;;27.39;41.79;94111.81;4933917;29;8935;-60
2023/05/13 08:51:32;;;;;;;;;;;;;;;27.38;41.78;94113.06;4895823;29;8691;-60
2023/05/13 08:54:15;;;;;;;;;;;;;;;27.39;41.62;94116.59;4884861;29;9394;-60
2023/05/13 08:57:06;;;;;;;;;;;;;;;27.38;41.61;94115.84;4865880;29;8517;-60
2023/05/13 08:59:36;;;;;;;;;;;;;;;27.36;41.77;94121.16;4893872;29;8048;-60
2023/05/13 09:02:25;;;;;;;;;;;;;;;27.34;41.34;94118.13;4898366;29;6983;-60
2023/05/13 09:05:49;;;;;;;;;;;;;;;27.34;41.58;94123.66;4918231;29;7099;-60
2023/05/13 09:08:33;;;;;;;;;;;;;;;27.34;41.41;94118.13;4917017;29;9501;-60
2023/05/13 09:11:32;;;;;;;;;;;;;;;27.35;41.60;94121.66;4916656;29;9411;-60
2023/05/13 09:14:11;;;;;;;;;;;;;;;27.31;42.25;94116.47;4921724;29;7107;-60
2023/05/13 09:16:50;;;;;;;;;;;;;;;27.33;42.43;94130.47;4923055;29;7039;-60
2023/05/13 09:19:51;;;;;;;;;;;;;;;27.32;41.87;94115.16;4924733;28;8823;-60
2023/05/13 09:22:28;;;;;;;;;;;;;;;27.33;41.73;94116.66;4897273;29;9030;-61
2023/05/13 09:25:06;;;;;;;;;;;;;;;27.33;41.30;94116.66;4945907;28;7340;-60
2023/05/13 09:27:57;;;;;;;;;;;;;;;27.32;40.87;94117.94;4949403;28;7514;-60
2023/05/13 09:34:09;;;;;;;;;;;;;;;27.29;40.89;94124.53;4997300;28;7269;-60
2023/05/13 09:37:07;;;;;;;;;;;;;;;27.30;41.29;94114.19;4993129;28;7272;-61
2023/05/13 09:40:10;;;;;;;;;;;;;;;27.29;41.28;94119.00;4956866;28;7212;-61
2023/05/13 09:43:23;;;;;;;;;;;;;;;27.30;41.63;94114.94;4919341;29;9044;-61
2023/05/13 09:46:02;;;;;;;;;;;;;;;27.30;41.41;94125.25;4882589;29;7223;-61
2023/05/13 09:49:02;;;;;;;;;;;;;;;27.30;41.53;94126.00;4882003;29;7088;-61
2023/05/13 09:51:39;;;;;;;;;;;;;;;27.21;41.34;94123.63;4888598;29;7248;-60
2023/05/13 09:54:15;;;;;;;;;;;;;;;27.28;41.64;94136.84;4878374;29;8979;-61
2023/05/13 09:56:57;;;;;;;;;;;;;;;27.31;41.43;94135.78;4855633;29;8917;-61
2023/05/13 09:59:23;;;;;;;;;;;;;;;27.31;41.83;94126.75;4857027;29;7534;-60
2023/05/13 10:02:34;;;;;;;;;;;;;;;27.33;41.56;94127.72;4858833;29;7185;-60
2023/05/13 10:05:20;;;;;;;;;;;;;;;27.34;41.38;94134.00;4859406;29;7046;-61
2023/05/13 10:07:48;;;;;;;;;;;;;;;27.35;41.70;94136.25;4843859;29;7294;-61
2023/05/13 10:10:26;;;;;;;;;;;;;;;27.34;41.38;94134.72;4843203;29;7123;-60
2023/05/13 10:12:58;;;;;;;;;;;;;;;27.35;41.79;94147.28;4850407;29;9046;-61
2023/05/13 10:15:25;;;;;;;;;;;;;;;27.35;41.92;94125.19;4858574;29;7487;-60
2023/05/13 10:17:53;;;;;;;;;;;;;;;27.34;41.79;94129.19;4915016;29;7352;-61
2023/05/13 10:20:21;;;;;;;;;;;;;;;27.32;41.83;94137.25;4930918;28;7041;-61
2023/05/13 10:22:49;;;;;;;;;;;;;;;27.34;41.74;94131.94;4949733;28;9192;-61
2023/05/13 10:25:17;;;;;;;;;;;;;;;27.34;41.63;94129.19;4974934;28;7135;-60
2023/05/13 10:27:46;;;;;;;;;;;;;;;27.35;41.21;94129.94;4977510;28;7218;-61
2023/05/13 10:30:31;;;;;;;;;;;;;;;27.34;41.55;94134.00;4970113;28;7253;-61
2023/05/13 10:33:08;;;;;;;;;;;;;;;27.34;41.57;94134.00;4991378;28;7680;-61
2023/05/13 10:35:41;;;;;;;;;;;;;;;27.32;41.51;94131.75;4992632;28;7065;-61
2023/05/13 10:38:25;;;;;;;;;;;;;;;27.30;41.92;94133.53;4991378;28;6884;-61
2023/05/13 10:41:17;;;;;;;;;;;;;;;27.29;41.81;94132.81;4995170;28;9277;-61
2023/05/13 10:43:56;;;;;;;;;;;;;;;27.28;41.66;94133.31;5016471;28;8382;-61
2023/05/13 10:46:29;;;;;;;;;;;;;;;27.27;42.18;94131.84;5042749;28;9071;-60
2023/05/13 10:48:57;;;;;;;;;;;;;;;27.28;42.15;94130.56;5039083;28;9063;-61
2023/05/13 10:51:28;;;;;;;;;;;;;;;27.29;42.01;94132.06;5041158;28;7492;-61
2023/05/13 10:54:18;;;;;;;;;;;;;;;27.28;42.02;94130.56;5046718;28;7028;-61
2023/05/13 10:56:56;;;;;;;;;;;;;;;27.27;42.19;94126.31;5042039;28;7121;-61
2023/05/13 11:00:14;;;;;;;;;;;;;;;27.27;42.04;94129.09;5034261;28;9440;-61
2023/05/13 11:03:34;;;;;;;;;;;;;;;27.26;42.09;94125.56;5001267;28;7052;-61
2023/05/13 11:06:32;;;;;;;;;;;;;;;27.25;41.94;94113.03;4958873;28;7201;-61
2023/05/13 11:08:58;;;;;;;;;;;;;;;27.22;41.43;94114.09;4959742;28;7133;-61
2023/05/13 11:11:31;;;;;;;;;;;;;;;27.26;41.85;94119.28;4949389;28;9380;-61
2023/05/13 11:14:23;;;;;;;;;;;;;;;27.25;41.85;94109.53;4954284;28;9157;-61
2023/05/13 11:17:03;;;;;;;;;;;;;;;27.24;41.92;94108.78;4949145;28;7208;-61
2023/05/13 11:19:34;;;;;;;;;;;;;;;27.22;41.92;94116.84;4968389;28;8961;-61
2023/05/13 11:22:21;;;;;;;;;;;;;;;27.25;41.80;94121.31;4957292;28;9043;-61
2023/05/13 11:25:27;;;;;;;;;;;;;;;27.21;42.76;94115.34;4965557;28;9072;-61
2023/05/13 11:28:02;;;;;;;;;;;;;;;27.23;42.10;94117.63;4971158;28;8945;-61
2023/05/13 11:30:30;;;;;;;;;;;;;;;27.23;41.86;94123.84;4952859;28;9409;-61
2023/05/13 11:33:01;;;;;;;;;;;;;;;27.25;42.34;94106.78;4960771;28;7133;-61
2023/05/13 11:35:31;;;;;;;;;;;;;;;27.22;42.36;94108.56;4968733;28;7341;-61
2023/05/13 11:38:01;;;;;;;;;;;;;;;27.26;41.75;94109.00;4989178;28;7146;-61
2023/05/13 11:40:37;;;;;;;;;;;;;;;27.28;42.19;94108.47;5009402;28;8991;-61
2023/05/13 11:43:17;;;;;;;;;;;;;;;27.26;41.95;94106.25;5042178;28;9016;-61
2023/05/13 11:45:44;;;;;;;;;;;;;;;27.23;42.01;94107.28;5047379;28;7048;-61
2023/05/13 11:48:39;;;;;;;;;;;;;;;27.24;42.33;94105.28;5043675;28;7261;-61
2023/05/13 11:51:07;;;;;;;;;;;;;;;27.23;42.34;94107.28;5044579;28;9722;-61
2023/05/13 11:53:33;;;;;;;;;;;;;;;27.21;42.25;94109.84;5025927;28;7006;-61
2023/05/13 11:56:09;;;;;;;;;;;;;;;27.20;42.16;94113.13;5036377;28;8941;-61
2023/05/13 11:58:35;;;;;;;;;;;;;;;27.20;42.27;94113.88;5029454;28;7788;-60
2023/05/13 12:01:01;;;;;;;;;;;;;;;27.24;42.21;94108.03;5023100;28;8824;-60
2023/05/13 12:03:34;;;;;;;;;;;;;;;27.25;42.30;94115.78;5025610;28;7102;-60
2023/05/13 12:06:02;;;;;;;;;;;;;;;27.25;42.30;94107.50;5045591;28;9042;-60
2023/05/13 12:09:03;;;;;;;;;;;;;;;27.26;42.31;94111.00;5031620;28;7900;-61
2023/05/13 12:11:30;;;;;;;;;;;;;;;27.26;41.80;94111.00;5053396;28;7885;-60
2023/05/13 12:14:32;;;;;;;;;;;;;;;27.28;42.21;94111.22;5048481;28;7055;-60
2023/05/13 12:16:58;;;;;;;;;;;;;;;27.29;42.36;94113.47;5027250;28;9064;-60
2023/05/13 12:19:28;;;;;;;;;;;;;;;27.28;42.20;94109.22;5046138;28;9003;-60
2023/05/13 12:21:55;;;;;;;;;;;;;;;27.27;42.41;94118.03;5052326;28;7261;-60
2023/05/13 12:24:23;;;;;;;;;;;;;;;27.25;42.41;94109.53;5040692;28;7493;-61
2023/05/13 12:26:49;;;;;;;;;;;;;;;27.24;42.58;94103.28;5040358;28;6936;-61
2023/05/13 12:33:00;;;;;;;;;;;;;;;27.27;42.86;94107.75;5053052;28;7531;-61
2023/05/13 12:35:47;;;;;;;;;;;;;;;27.27;42.57;94107.00;5027159;28;7633;-61
2023/05/13 12:38:23;;;;;;;;;;;;;;;27.27;42.29;94104.22;5046185;28;7625;-60
2023/05/13 12:40:54;;;;;;;;;;;;;;;27.29;42.46;94107.97;5038954;28;7035;-61
2023/05/13 12:43:26;;;;;;;;;;;;;;;27.29;42.40;94104.44;5050606;28;9365;-61
2023/05/13 12:45:57;;;;;;;;;;;;;;;27.32;42.36;94115.16;5038001;28;7048;-61
2023/05/13 12:48:27;;;;;;;;;;;;;;;27.31;42.37;94113.69;5044945;28;7869;-61
2023/05/13 12:51:50;;;;;;;;;;;;;;;27.30;42.27;94111.44;5025714;28;7040;-60
2023/05/13 12:54:27;;;;;;;;;;;;;;;27.30;42.11;94112.19;4998347;28;9086;-60
2023/05/13 12:57:23;;;;;;;;;;;;;;;27.28;42.23;94111.22;4994104;28;7032;-61
2023/05/13 12:59:57;;;;;;;;;;;;;;;27.25;42.61;94121.31;4993960;28;7061;-61
2023/05/13 13:02:42;;;;;;;;;;;;;;;27.25;42.12;94115.78;4985020;28;7268;-61
2023/05/13 13:05:09;;;;;;;;;;;;;;;27.22;42.29;94119.63;4996224;28;7025;-61
2023/05/13 13:07:50;;;;;;;;;;;;;;;27.22;41.80;94122.38;4999191;28;9229;-61
2023/05/13 13:10:27;;;;;;;;;;;;;;;27.24;42.46;94121.84;5006715;28;7107;-61
2023/05/13 13:12:53;;;;;;;;;;;;;;;27.23;42.46;94123.84;5009578;28;7044;-61
2023/05/13 13:15:48;;;;;;;;;;;;;;;27.23;42.24;94118.34;4978201;28;7298;-61
2023/05/13 13:18:32;;;;;;;;;;;;;;;27.23;42.28;94112.09;4946041;28;7168;-60
2023/05/13 13:20:58;;;;;;;;;;;;;;;27.23;42.26;94117.63;4974145;28;9472;-60
2023/05/13 13:23:50;;;;;;;;;;;;;;;27.24;42.47;94122.59;4962653;28;9167;-60
2023/05/13 13:26:25;;;;;;;;;;;;;;;27.26;42.42;94122.81;4960047;28;7550;-60
2023/05/13 13:28:51;;;;;;;;;;;;;;;27.24;42.25;94116.31;4992401;28;8327;-60
2023/05/13 13:31:27;;;;;;;;;;;;;;;27.21;42.37;94117.41;4996852;28;7817;-60
2023/05/13 13:34:24;;;;;;;;;;;;;;;27.22;42.11;94116.09;5011874;28;7136;-60
2023/05/13 13:36:55;;;;;;;;;;;;;;;27.23;42.09;94112.81;5009613;28;9440;-60
2023/05/13 13:39:36;;;;;;;;;;;;;;;27.24;42.16;94108.03;5003108;28;7419;-60
2023/05/13 13:42:04;;;;;;;;;;;;;;;27.23;42.09;94099.00;4996759;28;7261;-61
2023/05/13 13:44:53;;;;;;;;;;;;;;;27.24;41.93;94108.03;5005000;28;7736;-60
2023/05/13 13:47:20;;;;;;;;;;;;;;;27.21;42.20;94098.78;5002252;28;7766;-60
2023/05/13 13:49:50;;;;;;;;;;;;;;;27.25;42.15;94095.72;4984317;28;7484;-60
2023/05/13 13:52:37;;;;;;;;;;;;;;;27.20;42.07;94091.78;4991840;28;7066;-60
2023/05/13 13:55:14;;;;;;;;;;;;;;;27.22;42.13;94094.78;5013645;28;9032;-60
2023/05/13 13:57:45;;;;;;;;;;;;;;;27.24;42.15;94094.22;5046295;28;9382;-60
2023/05/13 14:00:25;;;;;;;;;;;;;;;27.22;41.98;94097.53;5048100;28;7290;-60
2023/05/13 14:02:51;;;;;;;;;;;;;;;27.23;41.90;94101.03;5023905;28;9454;-60
2023/05/13 14:05:20;;;;;;;;;;;;;;;27.21;42.07;94087.75;5042453;28;8832;-60
2023/05/13 14:07:48;;;;;;;;;;;;;;;27.22;41.99;94096.78;5049129;28;9298;-60
2023/05/13 14:10:15;;;;;;;;;;;;;;;27.22;42.59;94096.78;5027061;28;9032;-60